sensor_id;sensor_type;location;lat;lon;timestamp;P1;durP1;ratioP1;P2;durP2;ratioP2
10277;SDS011;5184;51.376;7.148;2023-04-03T00:02:00;8.30;;;6.17;;
10277;SDS011;5184;51.376;7.148;2023-04-03T00:04:27;9.43;;;6.50;;
10277;SDS011;5184;51.376;7.148;2023-04-03T00:06:54;7.20;;;6.43;;
10277;SDS011;5184;51.376;7.148;2023-04-03T00:09:21;9.63;;;6.97;;
10277;SDS011;5184;51.376;7.148;2023-04-03T00:11:48;9.53;;;7.07;;
10277;SDS011;5184;51.376;7.148;2023-04-03T00:14:16;8.47;;;6.63;;
10277;SDS011;5184;51.376;7.148;2023-04-03T00:16:42;9.87;;;6.60;;
10277;SDS011;5184;51.376;7.148;2023-04-03T00:19:10;7.87;;;6.80;;
10277;SDS011;5184;51.376;7.148;2023-04-03T00:21:36;7.47;;;6.23;;
10277;SDS011;5184;51.376;7.148;2023-04-03T00:24:03;7.60;;;6.73;;
10277;SDS011;5184;51.376;7.148;2023-04-03T00:26:30;9.10;;;6.60;;
10277;SDS011;5184;51.376;7.148;2023-04-03T00:28:57;10.17;;;6.37;;
10277;SDS011;5184;51.376;7.148;2023-04-03T00:31:24;8.60;;;6.50;;
10277;SDS011;5184;51.376;7.148;2023-04-03T00:33:50;8.30;;;6.70;;
10277;SDS011;5184;51.376;7.148;2023-04-03T00:36:17;9.10;;;7.00;;
10277;SDS011;5184;51.376;7.148;2023-04-03T00:38:44;10.77;;;7.50;;
10277;SDS011;5184;51.376;7.148;2023-04-03T00:41:12;9.33;;;7.20;;
10277;SDS011;5184;51.376;7.148;2023-04-03T00:43:39;10.60;;;7.53;;
10277;SDS011;5184;51.376;7.148;2023-04-03T00:46:06;8.07;;;6.53;;
10277;SDS011;5184;51.376;7.148;2023-04-03T00:48:33;8.87;;;7.53;;
10277;SDS011;5184;51.376;7.148;2023-04-03T00:51:08;8.27;;;7.37;;
10277;SDS011;5184;51.376;7.148;2023-04-03T00:53:37;8.27;;;7.40;;
10277;SDS011;5184;51.376;7.148;2023-04-03T00:56:04;9.30;;;7.23;;
10277;SDS011;5184;51.376;7.148;2023-04-03T00:58:33;9.03;;;7.23;;
10277;SDS011;5184;51.376;7.148;2023-04-03T01:00:58;7.40;;;6.60;;
10277;SDS011;5184;51.376;7.148;2023-04-03T01:03:24;8.13;;;7.07;;
10277;SDS011;5184;51.376;7.148;2023-04-03T01:05:51;10.00;;;7.23;;
10277;SDS011;5184;51.376;7.148;2023-04-03T01:08:18;11.60;;;7.70;;
10277;SDS011;5184;51.376;7.148;2023-04-03T01:10:45;7.63;;;6.83;;
10277;SDS011;5184;51.376;7.148;2023-04-03T01:13:21;8.50;;;7.43;;
10277;SDS011;5184;51.376;7.148;2023-04-03T01:15:46;8.43;;;7.20;;
10277;SDS011;5184;51.376;7.148;2023-04-03T01:18:13;8.87;;;7.40;;
10277;SDS011;5184;51.376;7.148;2023-04-03T01:20:48;9.57;;;7.53;;
10277;SDS011;5184;51.376;7.148;2023-04-03T01:23:15;9.23;;;7.43;;
10277;SDS011;5184;51.376;7.148;2023-04-03T01:25:42;11.27;;;8.00;;
10277;SDS011;5184;51.376;7.148;2023-04-03T01:28:08;10.63;;;7.70;;
10277;SDS011;5184;51.376;7.148;2023-04-03T01:30:35;9.03;;;7.67;;
10277;SDS011;5184;51.376;7.148;2023-04-03T01:33:01;9.50;;;7.60;;
10277;SDS011;5184;51.376;7.148;2023-04-03T01:35:28;8.90;;;7.60;;
10277;SDS011;5184;51.376;7.148;2023-04-03T01:37:56;11.10;;;8.03;;
10277;SDS011;5184;51.376;7.148;2023-04-03T01:40:23;9.87;;;8.27;;
10277;SDS011;5184;51.376;7.148;2023-04-03T01:42:50;9.40;;;8.10;;
10277;SDS011;5184;51.376;7.148;2023-04-03T01:45:18;9.40;;;8.17;;
10277;SDS011;5184;51.376;7.148;2023-04-03T01:47:44;11.47;;;8.37;;
10277;SDS011;5184;51.376;7.148;2023-04-03T01:50:12;12.60;;;8.37;;
10277;SDS011;5184;51.376;7.148;2023-04-03T01:52:39;12.53;;;8.03;;
10277;SDS011;5184;51.376;7.148;2023-04-03T01:55:06;9.40;;;8.37;;
10277;SDS011;5184;51.376;7.148;2023-04-03T01:57:33;10.47;;;8.20;;
10277;SDS011;5184;51.376;7.148;2023-04-03T02:00:00;11.43;;;8.57;;
10277;SDS011;5184;51.376;7.148;2023-04-03T02:02:27;9.90;;;7.23;;
10277;SDS011;5184;51.376;7.148;2023-04-03T02:04:54;11.77;;;7.87;;
10277;SDS011;5184;51.376;7.148;2023-04-03T02:07:20;10.53;;;8.37;;
10277;SDS011;5184;51.376;7.148;2023-04-03T02:09:48;9.63;;;7.80;;
10277;SDS011;5184;51.376;7.148;2023-04-03T02:12:16;9.83;;;8.13;;
10277;SDS011;5184;51.376;7.148;2023-04-03T02:14:43;10.30;;;8.20;;
10277;SDS011;5184;51.376;7.148;2023-04-03T02:17:11;10.53;;;7.83;;
10277;SDS011;5184;51.376;7.148;2023-04-03T02:19:37;12.60;;;8.13;;
10277;SDS011;5184;51.376;7.148;2023-04-03T02:22:04;10.43;;;8.47;;
10277;SDS011;5184;51.376;7.148;2023-04-03T02:24:31;9.50;;;7.93;;
10277;SDS011;5184;51.376;7.148;2023-04-03T02:26:58;10.63;;;8.00;;
10277;SDS011;5184;51.376;7.148;2023-04-03T02:29:25;13.60;;;8.90;;
10277;SDS011;5184;51.376;7.148;2023-04-03T02:31:52;9.93;;;7.63;;
10277;SDS011;5184;51.376;7.148;2023-04-03T02:34:19;11.83;;;9.10;;
10277;SDS011;5184;51.376;7.148;2023-04-03T02:36:46;11.40;;;8.50;;
10277;SDS011;5184;51.376;7.148;2023-04-03T02:39:12;10.43;;;8.30;;
10277;SDS011;5184;51.376;7.148;2023-04-03T02:41:40;10.83;;;8.17;;
10277;SDS011;5184;51.376;7.148;2023-04-03T02:44:08;9.60;;;8.03;;
10277;SDS011;5184;51.376;7.148;2023-04-03T02:46:34;10.53;;;7.70;;
10277;SDS011;5184;51.376;7.148;2023-04-03T02:49:01;10.50;;;7.20;;
10277;SDS011;5184;51.376;7.148;2023-04-03T02:51:27;10.53;;;7.40;;
10277;SDS011;5184;51.376;7.148;2023-04-03T02:53:54;9.60;;;6.93;;
10277;SDS011;5184;51.376;7.148;2023-04-03T02:56:21;11.00;;;7.40;;
10277;SDS011;5184;51.376;7.148;2023-04-03T02:58:47;9.23;;;6.70;;
10277;SDS011;5184;51.376;7.148;2023-04-03T03:01:15;9.87;;;6.30;;
10277;SDS011;5184;51.376;7.148;2023-04-03T03:03:41;9.03;;;6.03;;
10277;SDS011;5184;51.376;7.148;2023-04-03T03:06:09;8.40;;;5.87;;
10277;SDS011;5184;51.376;7.148;2023-04-03T03:08:36;8.80;;;5.37;;
10277;SDS011;5184;51.376;7.148;2023-04-03T03:11:02;7.83;;;5.77;;
10277;SDS011;5184;51.376;7.148;2023-04-03T03:13:29;7.17;;;5.83;;
10277;SDS011;5184;51.376;7.148;2023-04-03T03:15:56;6.33;;;4.93;;
10277;SDS011;5184;51.376;7.148;2023-04-03T03:18:22;7.73;;;5.00;;
10277;SDS011;5184;51.376;7.148;2023-04-03T03:20:51;8.53;;;5.13;;
10277;SDS011;5184;51.376;7.148;2023-04-03T03:23:20;7.23;;;4.90;;
10277;SDS011;5184;51.376;7.148;2023-04-03T03:25:47;8.23;;;4.93;;
10277;SDS011;5184;51.376;7.148;2023-04-03T03:28:15;5.40;;;4.33;;
10277;SDS011;5184;51.376;7.148;2023-04-03T03:30:41;7.53;;;4.80;;
10277;SDS011;5184;51.376;7.148;2023-04-03T03:33:09;7.27;;;4.20;;
10277;SDS011;5184;51.376;7.148;2023-04-03T03:35:37;7.67;;;3.80;;
10277;SDS011;5184;51.376;7.148;2023-04-03T03:38:04;5.93;;;3.37;;
10277;SDS011;5184;51.376;7.148;2023-04-03T03:40:31;8.87;;;3.83;;
10277;SDS011;5184;51.376;7.148;2023-04-03T03:42:58;5.20;;;3.97;;
10277;SDS011;5184;51.376;7.148;2023-04-03T03:45:25;4.73;;;3.70;;
10277;SDS011;5184;51.376;7.148;2023-04-03T03:47:51;7.17;;;3.60;;
10277;SDS011;5184;51.376;7.148;2023-04-03T03:50:18;6.50;;;3.67;;
10277;SDS011;5184;51.376;7.148;2023-04-03T03:52:44;5.57;;;3.80;;
10277;SDS011;5184;51.376;7.148;2023-04-03T03:55:12;5.93;;;3.37;;
10277;SDS011;5184;51.376;7.148;2023-04-03T03:57:39;5.77;;;3.63;;
10277;SDS011;5184;51.376;7.148;2023-04-03T04:00:06;5.20;;;3.47;;
10277;SDS011;5184;51.376;7.148;2023-04-03T04:02:34;5.07;;;3.10;;
10277;SDS011;5184;51.376;7.148;2023-04-03T04:05:00;6.30;;;3.23;;
10277;SDS011;5184;51.376;7.148;2023-04-03T04:07:28;5.47;;;3.63;;
10277;SDS011;5184;51.376;7.148;2023-04-03T04:09:55;4.17;;;3.43;;
10277;SDS011;5184;51.376;7.148;2023-04-03T04:12:22;4.63;;;3.10;;
10277;SDS011;5184;51.376;7.148;2023-04-03T04:14:50;5.50;;;3.17;;
10277;SDS011;5184;51.376;7.148;2023-04-03T04:17:16;5.30;;;3.20;;
10277;SDS011;5184;51.376;7.148;2023-04-03T04:19:43;5.40;;;3.10;;
10277;SDS011;5184;51.376;7.148;2023-04-03T04:22:10;6.13;;;3.97;;
10277;SDS011;5184;51.376;7.148;2023-04-03T04:24:37;5.57;;;3.40;;
10277;SDS011;5184;51.376;7.148;2023-04-03T04:27:04;7.57;;;3.27;;
10277;SDS011;5184;51.376;7.148;2023-04-03T04:29:32;4.17;;;2.77;;
10277;SDS011;5184;51.376;7.148;2023-04-03T04:31:59;5.37;;;2.93;;
10277;SDS011;5184;51.376;7.148;2023-04-03T04:34:26;4.73;;;3.20;;
10277;SDS011;5184;51.376;7.148;2023-04-03T04:36:52;4.87;;;2.90;;
10277;SDS011;5184;51.376;7.148;2023-04-03T04:39:19;7.63;;;3.30;;
10277;SDS011;5184;51.376;7.148;2023-04-03T04:41:46;6.07;;;3.43;;
10277;SDS011;5184;51.376;7.148;2023-04-03T04:44:13;6.60;;;3.00;;
10277;SDS011;5184;51.376;7.148;2023-04-03T04:46:40;4.90;;;2.90;;
10277;SDS011;5184;51.376;7.148;2023-04-03T04:49:07;7.33;;;3.10;;
10277;SDS011;5184;51.376;7.148;2023-04-03T04:51:34;6.23;;;2.90;;
10277;SDS011;5184;51.376;7.148;2023-04-03T04:54:01;6.40;;;3.33;;
10277;SDS011;5184;51.376;7.148;2023-04-03T04:56:27;7.27;;;3.27;;
10277;SDS011;5184;51.376;7.148;2023-04-03T04:58:54;5.50;;;2.87;;
10277;SDS011;5184;51.376;7.148;2023-04-03T05:01:21;5.03;;;2.77;;
10277;SDS011;5184;51.376;7.148;2023-04-03T05:03:48;4.10;;;2.90;;
10277;SDS011;5184;51.376;7.148;2023-04-03T05:06:16;6.77;;;3.40;;
10277;SDS011;5184;51.376;7.148;2023-04-03T05:08:43;7.77;;;3.00;;
10277;SDS011;5184;51.376;7.148;2023-04-03T05:11:10;5.40;;;2.80;;
10277;SDS011;5184;51.376;7.148;2023-04-03T05:13:36;5.80;;;2.90;;
10277;SDS011;5184;51.376;7.148;2023-04-03T05:16:04;6.47;;;3.37;;
10277;SDS011;5184;51.376;7.148;2023-04-03T05:18:31;4.70;;;3.10;;
10277;SDS011;5184;51.376;7.148;2023-04-03T05:20:59;4.00;;;2.90;;
10277;SDS011;5184;51.376;7.148;2023-04-03T05:23:26;4.53;;;3.40;;
10277;SDS011;5184;51.376;7.148;2023-04-03T05:25:52;5.50;;;3.07;;
10277;SDS011;5184;51.376;7.148;2023-04-03T05:28:19;5.93;;;3.33;;
10277;SDS011;5184;51.376;7.148;2023-04-03T05:30:52;7.27;;;3.67;;
10277;SDS011;5184;51.376;7.148;2023-04-03T05:33:13;6.37;;;3.30;;
10277;SDS011;5184;51.376;7.148;2023-04-03T05:35:40;8.30;;;3.63;;
10277;SDS011;5184;51.376;7.148;2023-04-03T05:38:07;8.13;;;3.77;;
10277;SDS011;5184;51.376;7.148;2023-04-03T05:40:33;7.53;;;3.50;;
10277;SDS011;5184;51.376;7.148;2023-04-03T05:43:00;6.93;;;3.30;;
10277;SDS011;5184;51.376;7.148;2023-04-03T05:45:28;8.37;;;3.30;;
10277;SDS011;5184;51.376;7.148;2023-04-03T05:47:54;6.53;;;3.07;;
10277;SDS011;5184;51.376;7.148;2023-04-03T05:50:21;6.33;;;3.87;;
10277;SDS011;5184;51.376;7.148;2023-04-03T05:52:48;7.43;;;3.77;;
10277;SDS011;5184;51.376;7.148;2023-04-03T05:55:14;9.20;;;3.80;;
10277;SDS011;5184;51.376;7.148;2023-04-03T05:57:41;7.03;;;3.80;;
10277;SDS011;5184;51.376;7.148;2023-04-03T06:00:08;5.50;;;3.60;;
10277;SDS011;5184;51.376;7.148;2023-04-03T06:02:36;8.67;;;3.70;;
10277;SDS011;5184;51.376;7.148;2023-04-03T06:05:02;6.20;;;3.87;;
10277;SDS011;5184;51.376;7.148;2023-04-03T06:07:29;6.43;;;3.70;;
10277;SDS011;5184;51.376;7.148;2023-04-03T06:09:56;7.50;;;3.53;;
10277;SDS011;5184;51.376;7.148;2023-04-03T06:12:23;11.67;;;3.90;;
10277;SDS011;5184;51.376;7.148;2023-04-03T06:14:49;7.57;;;4.03;;
10277;SDS011;5184;51.376;7.148;2023-04-03T06:17:17;10.73;;;3.77;;
10277;SDS011;5184;51.376;7.148;2023-04-03T06:19:44;7.13;;;3.90;;
10277;SDS011;5184;51.376;7.148;2023-04-03T06:22:11;6.37;;;3.77;;
10277;SDS011;5184;51.376;7.148;2023-04-03T06:24:37;8.97;;;3.93;;
10277;SDS011;5184;51.376;7.148;2023-04-03T06:27:04;5.97;;;4.13;;
10277;SDS011;5184;51.376;7.148;2023-04-03T06:29:31;7.20;;;3.80;;
10277;SDS011;5184;51.376;7.148;2023-04-03T06:31:58;6.07;;;3.70;;
10277;SDS011;5184;51.376;7.148;2023-04-03T06:34:25;7.40;;;3.90;;
10277;SDS011;5184;51.376;7.148;2023-04-03T06:36:51;8.23;;;4.40;;
10277;SDS011;5184;51.376;7.148;2023-04-03T06:39:20;8.70;;;3.97;;
10277;SDS011;5184;51.376;7.148;2023-04-03T06:41:47;7.03;;;4.00;;
10277;SDS011;5184;51.376;7.148;2023-04-03T06:44:14;9.67;;;4.47;;
10277;SDS011;5184;51.376;7.148;2023-04-03T06:46:41;10.37;;;4.33;;
10277;SDS011;5184;51.376;7.148;2023-04-03T06:49:07;8.37;;;3.63;;
10277;SDS011;5184;51.376;7.148;2023-04-03T06:51:35;10.77;;;3.93;;
10277;SDS011;5184;51.376;7.148;2023-04-03T06:54:02;10.53;;;4.30;;
10277;SDS011;5184;51.376;7.148;2023-04-03T06:56:28;7.03;;;3.10;;
10277;SDS011;5184;51.376;7.148;2023-04-03T06:58:56;5.47;;;3.43;;
10277;SDS011;5184;51.376;7.148;2023-04-03T07:01:22;9.47;;;3.27;;
10277;SDS011;5184;51.376;7.148;2023-04-03T07:03:48;6.43;;;2.90;;
10277;SDS011;5184;51.376;7.148;2023-04-03T07:06:15;5.80;;;2.67;;
10277;SDS011;5184;51.376;7.148;2023-04-03T07:08:42;6.97;;;2.80;;
10277;SDS011;5184;51.376;7.148;2023-04-03T07:11:10;5.93;;;3.60;;
10277;SDS011;5184;51.376;7.148;2023-04-03T07:13:37;8.03;;;2.73;;
10277;SDS011;5184;51.376;7.148;2023-04-03T07:16:04;5.03;;;3.03;;
10277;SDS011;5184;51.376;7.148;2023-04-03T07:18:33;6.13;;;3.03;;
10277;SDS011;5184;51.376;7.148;2023-04-03T07:21:00;5.73;;;2.90;;
10277;SDS011;5184;51.376;7.148;2023-04-03T07:23:28;5.60;;;2.70;;
10277;SDS011;5184;51.376;7.148;2023-04-03T07:25:55;5.73;;;2.50;;
10277;SDS011;5184;51.376;7.148;2023-04-03T07:28:22;5.70;;;2.90;;
10277;SDS011;5184;51.376;7.148;2023-04-03T07:30:51;4.83;;;2.33;;
10277;SDS011;5184;51.376;7.148;2023-04-03T07:33:17;5.20;;;2.53;;
10277;SDS011;5184;51.376;7.148;2023-04-03T07:35:44;5.50;;;2.70;;
10277;SDS011;5184;51.376;7.148;2023-04-03T07:38:12;3.70;;;2.20;;
10277;SDS011;5184;51.376;7.148;2023-04-03T07:40:39;5.60;;;2.53;;
10277;SDS011;5184;51.376;7.148;2023-04-03T07:43:06;3.80;;;2.47;;
10277;SDS011;5184;51.376;7.148;2023-04-03T07:45:34;5.27;;;2.40;;
10277;SDS011;5184;51.376;7.148;2023-04-03T07:48:01;3.57;;;2.20;;
10277;SDS011;5184;51.376;7.148;2023-04-03T07:50:28;5.30;;;2.47;;
10277;SDS011;5184;51.376;7.148;2023-04-03T07:52:56;5.77;;;2.53;;
10277;SDS011;5184;51.376;7.148;2023-04-03T07:55:23;4.20;;;2.43;;
10277;SDS011;5184;51.376;7.148;2023-04-03T07:57:50;9.67;;;2.30;;
10277;SDS011;5184;51.376;7.148;2023-04-03T08:00:16;4.97;;;2.30;;
10277;SDS011;5184;51.376;7.148;2023-04-03T08:05:25;6.33;;;2.40;;
10277;SDS011;5184;51.376;7.148;2023-04-03T08:07:52;7.13;;;2.70;;
10277;SDS011;5184;51.376;7.148;2023-04-03T08:10:20;4.90;;;2.40;;
10277;SDS011;5184;51.376;7.148;2023-04-03T08:12:47;4.80;;;2.60;;
10277;SDS011;5184;51.376;7.148;2023-04-03T08:15:14;5.20;;;2.20;;
10277;SDS011;5184;51.376;7.148;2023-04-03T08:17:42;3.80;;;2.10;;
10277;SDS011;5184;51.376;7.148;2023-04-03T08:20:09;5.73;;;2.67;;
10277;SDS011;5184;51.376;7.148;2023-04-03T08:22:36;7.60;;;2.10;;
10277;SDS011;5184;51.376;7.148;2023-04-03T08:25:04;6.53;;;2.53;;
10277;SDS011;5184;51.376;7.148;2023-04-03T08:27:31;4.43;;;1.90;;
10277;SDS011;5184;51.376;7.148;2023-04-03T08:29:57;5.17;;;2.20;;
10277;SDS011;5184;51.376;7.148;2023-04-03T08:32:24;3.90;;;2.30;;
10277;SDS011;5184;51.376;7.148;2023-04-03T08:34:51;6.07;;;2.23;;
10277;SDS011;5184;51.376;7.148;2023-04-03T08:37:18;5.50;;;1.77;;
10277;SDS011;5184;51.376;7.148;2023-04-03T08:39:45;6.50;;;2.33;;
10277;SDS011;5184;51.376;7.148;2023-04-03T08:42:19;4.83;;;2.17;;
10277;SDS011;5184;51.376;7.148;2023-04-03T08:44:59;5.80;;;2.27;;
10277;SDS011;5184;51.376;7.148;2023-04-03T08:47:27;2.87;;;1.80;;
10277;SDS011;5184;51.376;7.148;2023-04-03T08:49:52;5.23;;;2.00;;
10277;SDS011;5184;51.376;7.148;2023-04-03T08:52:18;6.00;;;2.03;;
10277;SDS011;5184;51.376;7.148;2023-04-03T08:54:49;4.47;;;2.07;;
10277;SDS011;5184;51.376;7.148;2023-04-03T08:57:16;5.43;;;2.10;;
10277;SDS011;5184;51.376;7.148;2023-04-03T08:59:42;3.67;;;1.60;;
10277;SDS011;5184;51.376;7.148;2023-04-03T09:02:20;3.27;;;1.90;;
10277;SDS011;5184;51.376;7.148;2023-04-03T09:04:50;4.13;;;1.60;;
10277;SDS011;5184;51.376;7.148;2023-04-03T09:07:20;2.57;;;1.60;;
10277;SDS011;5184;51.376;7.148;2023-04-03T09:09:43;2.40;;;1.60;;
10277;SDS011;5184;51.376;7.148;2023-04-03T09:12:15;2.90;;;1.70;;
10277;SDS011;5184;51.376;7.148;2023-04-03T09:14:57;4.53;;;1.80;;
10277;SDS011;5184;51.376;7.148;2023-04-03T09:18:03;2.70;;;1.67;;
10277;SDS011;5184;51.376;7.148;2023-04-03T09:20:19;3.43;;;1.43;;
10277;SDS011;5184;51.376;7.148;2023-04-03T09:22:47;4.40;;;1.30;;
10277;SDS011;5184;51.376;7.148;2023-04-03T09:25:17;4.60;;;1.97;;
10277;SDS011;5184;51.376;7.148;2023-04-03T09:27:43;3.03;;;1.80;;
10277;SDS011;5184;51.376;7.148;2023-04-03T09:30:14;3.77;;;1.73;;
10277;SDS011;5184;51.376;7.148;2023-04-03T09:32:43;2.37;;;1.30;;
10277;SDS011;5184;51.376;7.148;2023-04-03T09:35:41;3.60;;;1.93;;
10277;SDS011;5184;51.376;7.148;2023-04-03T09:37:53;3.60;;;1.70;;
10277;SDS011;5184;51.376;7.148;2023-04-03T09:40:33;3.20;;;1.53;;
10277;SDS011;5184;51.376;7.148;2023-04-03T09:43:01;3.03;;;1.60;;
10277;SDS011;5184;51.376;7.148;2023-04-03T09:45:29;4.63;;;1.90;;
10277;SDS011;5184;51.376;7.148;2023-04-03T09:50:30;3.57;;;1.40;;
10277;SDS011;5184;51.376;7.148;2023-04-03T09:52:56;5.23;;;1.93;;
10277;SDS011;5184;51.376;7.148;2023-04-03T09:55:24;3.80;;;1.77;;
10277;SDS011;5184;51.376;7.148;2023-04-03T09:57:53;4.23;;;1.57;;
10277;SDS011;5184;51.376;7.148;2023-04-03T10:00:21;4.60;;;1.60;;
10277;SDS011;5184;51.376;7.148;2023-04-03T10:02:46;3.57;;;1.30;;
10277;SDS011;5184;51.376;7.148;2023-04-03T10:10:35;3.07;;;1.70;;
10277;SDS011;5184;51.376;7.148;2023-04-03T10:13:05;2.17;;;1.40;;
10277;SDS011;5184;51.376;7.148;2023-04-03T10:15:33;4.03;;;1.40;;
10277;SDS011;5184;51.376;7.148;2023-04-03T10:18:00;3.10;;;1.47;;
10277;SDS011;5184;51.376;7.148;2023-04-03T10:20:27;2.27;;;1.50;;
10277;SDS011;5184;51.376;7.148;2023-04-03T10:22:58;3.63;;;1.53;;
10277;SDS011;5184;51.376;7.148;2023-04-03T10:28:30;3.13;;;1.40;;
10277;SDS011;5184;51.376;7.148;2023-04-03T10:31:08;2.17;;;1.40;;
10277;SDS011;5184;51.376;7.148;2023-04-03T10:33:48;1.77;;;1.23;;
10277;SDS011;5184;51.376;7.148;2023-04-03T10:36:44;3.07;;;1.80;;
10277;SDS011;5184;51.376;7.148;2023-04-03T10:39:18;5.50;;;1.67;;
10277;SDS011;5184;51.376;7.148;2023-04-03T10:41:53;3.93;;;1.40;;
10277;SDS011;5184;51.376;7.148;2023-04-03T10:44:20;2.87;;;1.50;;
10277;SDS011;5184;51.376;7.148;2023-04-03T10:46:58;2.43;;;1.30;;
10277;SDS011;5184;51.376;7.148;2023-04-03T10:49:31;3.40;;;1.57;;
10277;SDS011;5184;51.376;7.148;2023-04-03T10:52:02;5.63;;;1.80;;
10277;SDS011;5184;51.376;7.148;2023-04-03T10:54:33;2.27;;;1.40;;
10277;SDS011;5184;51.376;7.148;2023-04-03T10:57:00;3.53;;;1.50;;
10277;SDS011;5184;51.376;7.148;2023-04-03T10:59:30;2.27;;;1.40;;
10277;SDS011;5184;51.376;7.148;2023-04-03T11:01:59;4.20;;;1.60;;
10277;SDS011;5184;51.376;7.148;2023-04-03T11:04:26;2.53;;;1.40;;
10277;SDS011;5184;51.376;7.148;2023-04-03T11:06:54;2.53;;;1.43;;
10277;SDS011;5184;51.376;7.148;2023-04-03T11:09:21;2.27;;;1.30;;
10277;SDS011;5184;51.376;7.148;2023-04-03T11:11:45;2.47;;;1.20;;
10277;SDS011;5184;51.376;7.148;2023-04-03T11:14:20;2.30;;;1.30;;
10277;SDS011;5184;51.376;7.148;2023-04-03T11:16:49;1.87;;;1.20;;
10277;SDS011;5184;51.376;7.148;2023-04-03T11:19:18;2.03;;;1.07;;
10277;SDS011;5184;51.376;7.148;2023-04-03T11:21:45;1.53;;;1.00;;
10277;SDS011;5184;51.376;7.148;2023-04-03T11:24:16;2.57;;;1.20;;
10277;SDS011;5184;51.376;7.148;2023-04-03T11:26:40;3.30;;;1.30;;
10277;SDS011;5184;51.376;7.148;2023-04-03T11:29:07;1.97;;;1.20;;
10277;SDS011;5184;51.376;7.148;2023-04-03T11:31:39;2.20;;;1.20;;
10277;SDS011;5184;51.376;7.148;2023-04-03T11:34:19;2.53;;;1.20;;
10277;SDS011;5184;51.376;7.148;2023-04-03T11:36:59;1.53;;;1.20;;
10277;SDS011;5184;51.376;7.148;2023-04-03T11:39:28;5.10;;;1.40;;
10277;SDS011;5184;51.376;7.148;2023-04-03T11:41:55;1.90;;;1.13;;
10277;SDS011;5184;51.376;7.148;2023-04-03T11:44:27;2.90;;;1.30;;
10277;SDS011;5184;51.376;7.148;2023-04-03T11:46:53;2.70;;;1.40;;
10277;SDS011;5184;51.376;7.148;2023-04-03T11:49:52;3.70;;;1.30;;
10277;SDS011;5184;51.376;7.148;2023-04-03T11:52:09;1.10;;;1.00;;
10277;SDS011;5184;51.376;7.148;2023-04-03T11:54:36;2.03;;;1.00;;
10277;SDS011;5184;51.376;7.148;2023-04-03T11:57:23;2.92;;;1.35;;
10277;SDS011;5184;51.376;7.148;2023-04-03T11:59:48;2.37;;;1.00;;
10277;SDS011;5184;51.376;7.148;2023-04-03T12:02:34;1.87;;;1.17;;
10277;SDS011;5184;51.376;7.148;2023-04-03T12:05:39;1.87;;;1.10;;
10277;SDS011;5184;51.376;7.148;2023-04-03T12:10:28;1.90;;;1.33;;
10277;SDS011;5184;51.376;7.148;2023-04-03T12:12:55;1.73;;;1.20;;
10277;SDS011;5184;51.376;7.148;2023-04-03T12:15:23;3.33;;;1.27;;
10277;SDS011;5184;51.376;7.148;2023-04-03T12:17:48;3.80;;;1.23;;
10277;SDS011;5184;51.376;7.148;2023-04-03T12:23:08;1.40;;;1.10;;
10277;SDS011;5184;51.376;7.148;2023-04-03T12:25:46;2.13;;;1.20;;
10277;SDS011;5184;51.376;7.148;2023-04-03T12:28:06;2.93;;;1.57;;
10277;SDS011;5184;51.376;7.148;2023-04-03T12:30:34;2.80;;;1.27;;
10277;SDS011;5184;51.376;7.148;2023-04-03T12:33:10;2.00;;;1.33;;
10277;SDS011;5184;51.376;7.148;2023-04-03T12:35:34;2.57;;;1.40;;
10277;SDS011;5184;51.376;7.148;2023-04-03T12:38:16;3.03;;;1.20;;
10277;SDS011;5184;51.376;7.148;2023-04-03T12:40:53;1.87;;;1.20;;
10277;SDS011;5184;51.376;7.148;2023-04-03T12:43:26;1.97;;;1.10;;
10277;SDS011;5184;51.376;7.148;2023-04-03T12:45:58;2.90;;;1.63;;
10277;SDS011;5184;51.376;7.148;2023-04-03T12:48:24;1.93;;;1.40;;
10277;SDS011;5184;51.376;7.148;2023-04-03T12:50:50;2.13;;;1.40;;
10277;SDS011;5184;51.376;7.148;2023-04-03T12:53:19;3.23;;;1.30;;
10277;SDS011;5184;51.376;7.148;2023-04-03T12:55:45;2.87;;;1.50;;
10277;SDS011;5184;51.376;7.148;2023-04-03T12:58:14;3.30;;;1.30;;
10277;SDS011;5184;51.376;7.148;2023-04-03T13:00:46;2.13;;;1.20;;
10277;SDS011;5184;51.376;7.148;2023-04-03T13:05:45;2.60;;;1.37;;
10277;SDS011;5184;51.376;7.148;2023-04-03T13:08:12;2.43;;;1.30;;
10277;SDS011;5184;51.376;7.148;2023-04-03T13:10:46;2.33;;;1.43;;
10277;SDS011;5184;51.376;7.148;2023-04-03T13:13:13;1.67;;;1.37;;
10277;SDS011;5184;51.376;7.148;2023-04-03T13:15:42;2.67;;;1.30;;
10277;SDS011;5184;51.376;7.148;2023-04-03T13:20:50;1.87;;;1.30;;
10277;SDS011;5184;51.376;7.148;2023-04-03T13:23:16;4.03;;;1.47;;
10277;SDS011;5184;51.376;7.148;2023-04-03T13:25:43;2.17;;;1.20;;
10277;SDS011;5184;51.376;7.148;2023-04-03T13:28:10;3.87;;;1.20;;
10277;SDS011;5184;51.376;7.148;2023-04-03T13:30:37;2.47;;;1.33;;
10277;SDS011;5184;51.376;7.148;2023-04-03T13:33:04;1.30;;;1.13;;
10277;SDS011;5184;51.376;7.148;2023-04-03T13:35:34;2.87;;;1.60;;
10277;SDS011;5184;51.376;7.148;2023-04-03T13:38:01;2.00;;;1.20;;
10277;SDS011;5184;51.376;7.148;2023-04-03T13:40:26;1.20;;;1.10;;
10277;SDS011;5184;51.376;7.148;2023-04-03T13:42:59;3.07;;;1.60;;
10277;SDS011;5184;51.376;7.148;2023-04-03T13:45:27;4.60;;;1.30;;
10277;SDS011;5184;51.376;7.148;2023-04-03T13:48:15;1.80;;;1.10;;
10277;SDS011;5184;51.376;7.148;2023-04-03T13:53:26;2.07;;;1.20;;
10277;SDS011;5184;51.376;7.148;2023-04-03T13:55:56;2.97;;;1.27;;
10277;SDS011;5184;51.376;7.148;2023-04-03T13:58:22;4.40;;;1.40;;
10277;SDS011;5184;51.376;7.148;2023-04-03T14:00:50;2.93;;;1.50;;
10277;SDS011;5184;51.376;7.148;2023-04-03T14:05:51;2.27;;;1.40;;
10277;SDS011;5184;51.376;7.148;2023-04-03T14:08:18;3.60;;;1.37;;
10277;SDS011;5184;51.376;7.148;2023-04-03T14:10:45;2.53;;;1.43;;
10277;SDS011;5184;51.376;7.148;2023-04-03T14:13:13;3.13;;;1.50;;
10277;SDS011;5184;51.376;7.148;2023-04-03T14:15:40;3.77;;;1.40;;
10277;SDS011;5184;51.376;7.148;2023-04-03T14:18:12;3.90;;;1.30;;
10277;SDS011;5184;51.376;7.148;2023-04-03T14:20:38;3.40;;;1.60;;
10277;SDS011;5184;51.376;7.148;2023-04-03T14:23:05;3.00;;;1.40;;
10277;SDS011;5184;51.376;7.148;2023-04-03T14:25:31;3.60;;;1.47;;
10277;SDS011;5184;51.376;7.148;2023-04-03T14:27:58;1.90;;;1.40;;
10277;SDS011;5184;51.376;7.148;2023-04-03T14:30:26;3.23;;;1.50;;
10277;SDS011;5184;51.376;7.148;2023-04-03T14:32:52;3.77;;;1.40;;
10277;SDS011;5184;51.376;7.148;2023-04-03T14:35:19;3.27;;;1.37;;
10277;SDS011;5184;51.376;7.148;2023-04-03T14:37:46;2.33;;;1.67;;
10277;SDS011;5184;51.376;7.148;2023-04-03T14:40:16;1.93;;;1.00;;
10277;SDS011;5184;51.376;7.148;2023-04-03T14:42:40;3.60;;;1.23;;
10277;SDS011;5184;51.376;7.148;2023-04-03T14:45:08;2.23;;;1.53;;
10277;SDS011;5184;51.376;7.148;2023-04-03T14:47:35;2.03;;;1.40;;
10277;SDS011;5184;51.376;7.148;2023-04-03T14:50:03;2.90;;;1.47;;
10277;SDS011;5184;51.376;7.148;2023-04-03T14:52:30;1.90;;;1.40;;
10277;SDS011;5184;51.376;7.148;2023-04-03T14:54:55;2.27;;;1.23;;
10277;SDS011;5184;51.376;7.148;2023-04-03T14:57:24;3.57;;;1.40;;
10277;SDS011;5184;51.376;7.148;2023-04-03T14:59:50;1.97;;;1.43;;
10277;SDS011;5184;51.376;7.148;2023-04-03T15:02:27;4.33;;;1.50;;
10277;SDS011;5184;51.376;7.148;2023-04-03T15:04:55;3.03;;;1.50;;
10277;SDS011;5184;51.376;7.148;2023-04-03T15:07:22;2.63;;;1.43;;
10277;SDS011;5184;51.376;7.148;2023-04-03T15:09:49;4.97;;;1.80;;
10277;SDS011;5184;51.376;7.148;2023-04-03T15:12:17;2.20;;;1.50;;
10277;SDS011;5184;51.376;7.148;2023-04-03T15:14:43;2.27;;;1.40;;
10277;SDS011;5184;51.376;7.148;2023-04-03T15:17:14;2.83;;;1.60;;
10277;SDS011;5184;51.376;7.148;2023-04-03T15:19:40;2.90;;;1.70;;
10277;SDS011;5184;51.376;7.148;2023-04-03T15:22:08;2.50;;;1.33;;
10277;SDS011;5184;51.376;7.148;2023-04-03T15:24:33;2.17;;;1.53;;
10277;SDS011;5184;51.376;7.148;2023-04-03T15:27:00;2.60;;;1.70;;
10277;SDS011;5184;51.376;7.148;2023-04-03T15:29:27;1.83;;;1.43;;
10277;SDS011;5184;51.376;7.148;2023-04-03T15:31:55;3.17;;;1.33;;
10277;SDS011;5184;51.376;7.148;2023-04-03T15:34:21;2.33;;;1.53;;
10277;SDS011;5184;51.376;7.148;2023-04-03T15:36:49;1.97;;;1.57;;